createdAt,value
2022-09-17T00:00:49.014Z,11.93
2022-09-17T00:03:16.477Z,11.92
2022-09-17T00:05:43.869Z,11.89
2022-09-17T00:08:15.072Z,11.88
2022-09-17T00:10:44.532Z,11.86
2022-09-17T00:13:12.528Z,11.82
2022-09-17T00:15:43.987Z,11.76
2022-09-17T00:18:11.679Z,11.72
2022-09-17T00:20:44.187Z,11.71
2022-09-17T00:23:12.130Z,11.71
2022-09-17T00:25:44.012Z,11.73
2022-09-17T00:28:12.177Z,11.72
2022-09-17T00:30:44.259Z,11.72
2022-09-17T00:33:16.389Z,11.69
2022-09-17T00:35:43.752Z,11.68
2022-09-17T00:38:11.166Z,11.69
2022-09-17T00:40:38.685Z,11.67
2022-09-17T00:43:10.372Z,11.61
2022-09-17T00:45:39.745Z,11.57
2022-09-17T00:48:06.876Z,11.47
2022-09-17T00:50:42.268Z,11.40
2022-09-17T00:53:14.385Z,11.35
2022-09-17T00:55:45.656Z,11.30
2022-09-17T00:58:15.602Z,11.32
2022-09-17T01:00:43.171Z,11.37
2022-09-17T01:03:09.904Z,11.40
2022-09-17T01:05:48.916Z,11.35
2022-09-17T01:08:18.263Z,11.26
2022-09-17T01:11:13.015Z,11.27
2022-09-17T01:14:16.364Z,11.34
2022-09-17T01:17:00.380Z,11.34
2022-09-17T01:19:32.608Z,11.36
2022-09-17T01:22:08.212Z,11.32
2022-09-17T01:24:53.453Z,11.31
2022-09-17T01:27:35.863Z,11.27
2022-09-17T01:30:34.770Z,11.26
2022-09-17T01:33:13.269Z,11.26
2022-09-17T01:36:02.605Z,11.23
2022-09-17T01:39:01.594Z,11.24
2022-09-17T01:41:42.042Z,11.23
2022-09-17T01:44:12.580Z,11.22
2022-09-17T01:47:03.236Z,11.19
2022-09-17T01:49:32.742Z,11.15
2022-09-17T01:52:01.051Z,11.16
2022-09-17T01:54:49.294Z,11.12
2022-09-17T01:57:24.972Z,11.11
2022-09-17T02:00:04.415Z,11.07
2022-09-17T02:02:38.745Z,11.08
2022-09-17T02:05:43.934Z,11.06
2022-09-17T02:08:18.848Z,11.00
2022-09-17T02:10:49.762Z,11.00
2022-09-17T02:13:28.456Z,11.00
2022-09-17T02:16:06.525Z,10.99
2022-09-17T02:19:00.881Z,10.97
2022-09-17T02:21:38.036Z,10.97
2022-09-17T02:24:19.581Z,10.97
2022-09-17T02:27:09.272Z,10.98
2022-09-17T02:29:39.943Z,10.99
2022-09-17T02:32:06.925Z,10.97
2022-09-17T02:34:34.677Z,10.95
2022-09-17T02:37:02.358Z,10.94
2022-09-17T02:39:29.378Z,10.92
2022-09-17T02:41:55.957Z,10.89
2022-09-17T02:44:35.368Z,10.86
2022-09-17T02:47:08.062Z,10.88
2022-09-17T02:49:54.030Z,10.89
2022-09-17T02:52:26.545Z,10.89
2022-09-17T02:55:25.921Z,10.90
2022-09-17T02:58:00.451Z,10.88
2022-09-17T03:00:28.500Z,10.88
2022-09-17T03:03:09.004Z,10.87
2022-09-17T03:05:38.209Z,10.82
2022-09-17T03:08:09.718Z,10.78
2022-09-17T03:10:36.378Z,10.77
2022-09-17T03:13:03.240Z,10.74
2022-09-17T03:15:29.968Z,10.71
2022-09-17T03:17:56.685Z,10.68
2022-09-17T03:20:23.525Z,10.69
2022-09-17T03:22:51.804Z,10.68
2022-09-17T03:25:18.440Z,10.63
2022-09-17T03:27:45.081Z,10.65
2022-09-17T03:30:11.917Z,10.61
2022-09-17T03:32:38.540Z,10.58
2022-09-17T03:35:05.405Z,10.59
2022-09-17T03:37:33.221Z,10.57
2022-09-17T03:40:00.136Z,10.57
2022-09-17T03:42:26.871Z,10.59
2022-09-17T03:44:53.526Z,10.54
2022-09-17T03:47:20.145Z,10.53
2022-09-17T03:49:46.842Z,10.54
2022-09-17T03:52:13.453Z,10.54
2022-09-17T03:54:40.141Z,10.52
2022-09-17T03:57:06.776Z,10.48
2022-09-17T03:59:33.405Z,10.48
2022-09-17T04:02:00.195Z,10.46
2022-09-17T04:04:26.934Z,10.47
2022-09-17T04:06:54.652Z,10.44
2022-09-17T04:09:21.277Z,10.47
2022-09-17T04:11:47.924Z,10.44
2022-09-17T04:14:14.540Z,10.43
2022-09-17T04:16:41.238Z,10.37
2022-09-17T04:19:07.987Z,10.24
2022-09-17T04:21:34.638Z,10.23
2022-09-17T04:24:01.505Z,10.25
2022-09-17T04:26:28.148Z,10.22
2022-09-17T04:28:54.787Z,10.17
2022-09-17T04:31:22.766Z,10.15
2022-09-17T04:33:49.445Z,10.08
2022-09-17T04:36:16.397Z,10.08
2022-09-17T04:38:43.031Z,10.08
2022-09-17T04:41:09.755Z,10.06
2022-09-17T04:43:36.528Z,10.10
2022-09-17T04:46:03.147Z,10.09
2022-09-17T04:48:29.755Z,10.08
2022-09-17T04:50:56.385Z,10.06
2022-09-17T04:53:23.020Z,9.97
2022-09-17T04:55:49.650Z,9.98
2022-09-17T04:58:16.418Z,9.97
2022-09-17T05:00:43.319Z,10.00
2022-09-17T05:03:10.010Z,10.01
2022-09-17T05:05:36.685Z,10.04
2022-09-17T05:08:03.655Z,10.07
2022-09-17T05:10:31.275Z,10.11
2022-09-17T05:12:57.941Z,10.11
2022-09-17T05:15:26.110Z,10.07
2022-09-17T05:17:52.833Z,10.02
2022-09-17T05:20:20.179Z,10.00
2022-09-17T05:22:49.137Z,10.01
2022-09-17T05:25:17.231Z,10.02
2022-09-17T05:27:44.163Z,10.02
2022-09-17T05:30:11.992Z,9.93
2022-09-17T05:32:39.260Z,9.95
2022-09-17T05:35:06.197Z,9.99
2022-09-17T05:37:33.079Z,10.00
2022-09-17T05:39:59.800Z,10.02
2022-09-17T05:42:26.524Z,10.03
2022-09-17T05:44:53.175Z,10.04
2022-09-17T05:47:19.797Z,10.05
2022-09-17T05:49:46.476Z,10.05
2022-09-17T05:52:13.107Z,10.07
2022-09-17T05:54:39.824Z,10.06
2022-09-17T05:57:06.536Z,10.04
2022-09-17T05:59:33.474Z,9.99
2022-09-17T06:02:00.188Z,10.02
2022-09-17T06:04:27.702Z,10.05
2022-09-17T06:06:56.212Z,10.03
2022-09-17T06:09:22.932Z,10.01
2022-09-17T06:11:49.701Z,10.03
2022-09-17T06:14:16.437Z,10.01
2022-09-17T06:16:43.195Z,10.01
2022-09-17T06:19:09.841Z,10.00
2022-09-17T06:21:36.489Z,10.01
2022-09-17T06:24:03.508Z,10.00
2022-09-17T06:26:30.177Z,10.01
2022-09-17T06:29:00.085Z,9.98
2022-09-17T06:31:26.858Z,9.99
2022-09-17T06:33:54.238Z,10.03
2022-09-17T06:36:20.991Z,9.99
2022-09-17T06:38:47.616Z,9.99
2022-09-17T06:41:15.079Z,10.02
2022-09-17T06:43:41.793Z,10.00
2022-09-17T06:46:10.312Z,9.95
2022-09-17T06:48:38.387Z,9.92
2022-09-17T06:51:07.834Z,9.97
2022-09-17T06:53:36.767Z,9.99
2022-09-17T06:56:06.639Z,9.99
2022-09-17T06:58:34.695Z,10.00
2022-09-17T07:01:02.261Z,9.97
2022-09-17T07:03:30.455Z,9.94
2022-09-17T07:05:57.947Z,10.00
2022-09-17T07:08:26.072Z,10.04
2022-09-17T07:10:56.382Z,10.06
2022-09-17T07:13:23.481Z,10.05
2022-09-17T07:15:59.478Z,10.14
2022-09-17T07:18:26.577Z,10.11
2022-09-17T07:20:58.462Z,10.04
2022-09-17T07:23:27.733Z,10.02
2022-09-17T07:25:59.335Z,10.09
2022-09-17T07:28:27.025Z,10.14
2022-09-17T07:30:54.054Z,10.18
2022-09-17T07:33:24.508Z,10.24
2022-09-17T07:35:56.593Z,10.31
2022-09-17T07:38:24.269Z,10.26
2022-09-17T07:41:15.692Z,10.12
2022-09-17T07:43:43.451Z,10.11
2022-09-17T07:46:19.317Z,10.07
2022-09-17T07:48:47.967Z,10.05
2022-09-17T07:51:25.746Z,10.10
2022-09-17T07:53:58.076Z,10.20
2022-09-17T07:56:26.464Z,10.27
2022-09-17T07:58:53.752Z,10.31
2022-09-17T08:01:23.289Z,10.33
2022-09-17T08:03:52.209Z,10.33
2022-09-17T08:06:26.162Z,10.35
2022-09-17T08:08:52.886Z,10.33
2022-09-17T08:14:11.667Z,10.42
2022-09-17T08:16:38.446Z,10.45
2022-09-17T08:19:05.090Z,10.48
2022-09-17T08:21:31.795Z,10.49
2022-09-17T08:23:58.795Z,10.54
2022-09-17T08:26:25.537Z,10.55
2022-09-17T08:28:56.799Z,10.56
2022-09-17T08:31:26.666Z,10.61
2022-09-17T08:33:53.371Z,10.57
2022-09-17T08:36:22.755Z,10.58
2022-09-17T08:38:53.359Z,10.56
2022-09-17T08:41:35.509Z,10.54
2022-09-17T08:44:02.162Z,10.59
2022-09-17T08:46:33.286Z,10.60
2022-09-17T08:49:37.318Z,10.65
2022-09-17T08:52:24.001Z,10.64
2022-09-17T08:55:11.935Z,10.59
2022-09-17T08:57:47.343Z,10.55
2022-09-17T09:00:19.081Z,10.53
2022-09-17T09:03:05.151Z,10.54
2022-09-17T09:05:36.556Z,10.50
2022-09-17T09:08:16.823Z,10.43
2022-09-17T09:10:55.515Z,10.38
2022-09-17T09:13:25.169Z,10.31
2022-09-17T09:16:06.379Z,10.24
2022-09-17T09:18:39.017Z,10.22
2022-09-17T09:21:27.837Z,10.21
2022-09-17T09:24:06.716Z,10.23
2022-09-17T09:27:19.101Z,10.22
2022-09-17T09:30:03.929Z,10.18
2022-09-17T09:32:58.878Z,10.16
2022-09-17T09:35:30.064Z,10.06
2022-09-17T09:38:05.956Z,9.95
2022-09-17T09:40:46.777Z,9.98
2022-09-17T09:43:53.040Z,9.94
2022-09-17T09:46:27.355Z,9.89
2022-09-17T09:49:24.628Z,9.94
2022-09-17T09:52:12.509Z,9.94
2022-09-17T09:54:52.939Z,10.03
2022-09-17T09:57:34.871Z,10.09
2022-09-17T10:00:33.074Z,10.20
2022-09-17T10:03:09.777Z,10.29
2022-09-17T10:05:37.694Z,10.36
2022-09-17T10:08:14.814Z,10.40
2022-09-17T10:11:01.551Z,10.53
2022-09-17T10:13:31.077Z,10.55
2022-09-17T10:16:07.971Z,10.69
2022-09-17T10:18:34.669Z,10.81
2022-09-17T10:21:01.548Z,10.83
2022-09-17T10:23:31.873Z,10.86
2022-09-17T10:25:58.548Z,10.90
2022-09-17T10:28:44.567Z,10.92
2022-09-17T10:31:11.633Z,11.05
2022-09-17T10:34:00.762Z,11.09
2022-09-17T10:36:45.691Z,11.19
2022-09-17T10:39:48.726Z,11.21
2022-09-17T10:42:17.288Z,11.27
2022-09-17T10:45:04.345Z,11.33
2022-09-17T10:47:36.744Z,11.42
2022-09-17T10:50:17.542Z,11.43
2022-09-17T10:52:50.168Z,11.49
2022-09-17T10:55:43.098Z,11.51
2022-09-17T10:58:24.198Z,11.50
2022-09-17T11:01:02.754Z,11.54
2022-09-17T11:03:53.918Z,11.40
2022-09-17T11:07:02.041Z,11.42
2022-09-17T11:10:02.605Z,11.47
2022-09-17T11:12:44.527Z,11.46
2022-09-17T11:15:23.581Z,11.44
2022-09-17T11:18:18.507Z,11.47
2022-09-17T11:21:05.263Z,11.46
2022-09-17T11:23:43.911Z,11.50
2022-09-17T11:26:39.323Z,11.58
2022-09-17T11:29:08.954Z,11.62
2022-09-17T11:31:55.671Z,11.60
2022-09-17T11:34:46.394Z,11.67
2022-09-17T11:37:23.372Z,11.69
2022-09-17T11:39:55.361Z,11.72
2022-09-17T11:42:45.752Z,11.83
2022-09-17T11:45:20.288Z,11.75
2022-09-17T11:47:59.033Z,11.71
2022-09-17T11:50:45.718Z,11.72
2022-09-17T11:53:25.745Z,11.67
2022-09-17T11:56:16.137Z,11.64
2022-09-17T11:58:54.170Z,11.57
2022-09-17T12:01:37.186Z,11.53
2022-09-17T12:04:40.824Z,11.42
2022-09-17T12:07:22.471Z,11.36
2022-09-17T12:09:55.387Z,11.37
2022-09-17T12:12:48.342Z,11.34
2022-09-17T12:15:21.632Z,11.26
2022-09-17T12:18:20.494Z,11.20
2022-09-17T12:20:47.969Z,11.20
2022-09-17T12:23:18.940Z,11.15
2022-09-17T12:26:09.035Z,11.19
2022-09-17T12:28:44.360Z,11.20
2022-09-17T12:31:43.364Z,11.22
2022-09-17T12:34:36.752Z,11.24
2022-09-17T12:37:09.587Z,11.28
2022-09-17T12:40:03.463Z,11.21
2022-09-17T12:42:56.251Z,11.25
2022-09-17T12:45:35.078Z,11.23
2022-09-17T12:48:44.388Z,11.26
2022-09-17T12:51:26.274Z,11.24
2022-09-17T12:54:16.884Z,11.23
2022-09-17T12:57:24.605Z,11.14
2022-09-17T13:00:05.260Z,11.14
2022-09-17T13:02:40.365Z,11.02
2022-09-17T13:05:35.717Z,11.05
2022-09-17T13:08:47.080Z,11.06
2022-09-17T13:11:41.858Z,10.99
2022-09-17T13:14:26.829Z,10.94
2022-09-17T13:16:56.706Z,10.95
2022-09-17T13:19:52.898Z,10.98
2022-09-17T13:22:21.903Z,10.95
2022-09-17T13:25:03.365Z,10.98
2022-09-17T13:27:31.018Z,10.93
2022-09-17T13:29:58.549Z,10.82
2022-09-17T13:32:34.719Z,10.80
2022-09-17T13:35:10.608Z,10.81
2022-09-17T13:37:44.432Z,10.80
2022-09-17T13:40:23.182Z,10.77
2022-09-17T13:42:55.591Z,10.79
2022-09-17T13:45:24.404Z,10.77
2022-09-17T13:47:54.219Z,10.71
2022-09-17T13:50:33.083Z,10.75
2022-09-17T13:53:08.453Z,10.75
2022-09-17T13:55:38.985Z,10.78
2022-09-17T13:58:10.280Z,10.77
2022-09-17T14:00:56.908Z,10.65
2022-09-17T14:03:37.282Z,10.58
2022-09-17T14:06:11.009Z,10.63
2022-09-17T14:08:43.641Z,10.61
2022-09-17T14:11:25.315Z,10.68
2022-09-17T14:14:08.996Z,10.69
2022-09-17T14:16:46.426Z,10.61
2022-09-17T14:19:15.953Z,10.64
2022-09-17T14:21:44.538Z,10.71
2022-09-17T14:24:22.561Z,10.72
2022-09-17T14:27:01.234Z,10.67
2022-09-17T14:29:30.635Z,10.67
2022-09-17T14:31:57.873Z,10.77
2022-09-17T14:34:27.158Z,10.82
2022-09-17T14:36:55.176Z,10.77
2022-09-17T14:39:24.251Z,10.71
2022-09-17T14:41:52.956Z,10.71
2022-09-17T14:44:21.881Z,10.83
2022-09-17T14:47:13.403Z,10.85
2022-09-17T14:49:41.057Z,10.86
2022-09-17T14:52:31.692Z,10.82
2022-09-17T14:55:18.153Z,10.88
2022-09-17T14:58:04.835Z,10.91
2022-09-17T15:00:35.374Z,10.96
2022-09-17T15:03:02.203Z,10.98
2022-09-17T15:05:42.501Z,10.93
2022-09-17T15:08:16.095Z,10.97
2022-09-17T15:10:55.459Z,10.92
2022-09-17T15:13:28.248Z,10.90
2022-09-17T15:16:01.069Z,10.93
2022-09-17T15:18:38.471Z,10.82
2022-09-17T15:21:22.104Z,10.84
2022-09-17T15:23:51.796Z,10.81
2022-09-17T15:26:27.098Z,10.80
2022-09-17T15:28:56.013Z,10.81
2022-09-17T15:31:23.626Z,10.78
2022-09-17T15:33:50.892Z,10.68
2022-09-17T15:36:27.468Z,10.77
2022-09-17T15:38:54.729Z,10.68
2022-09-17T15:41:35.562Z,10.59
2022-09-17T15:44:29.206Z,10.50
2022-09-17T15:47:52.393Z,10.43
2022-09-17T15:50:20.893Z,10.34
2022-09-17T15:52:48.591Z,10.21
2022-09-17T15:55:58.819Z,10.16
2022-09-17T15:58:37.143Z,10.10
2022-09-17T16:01:15.768Z,10.05
2022-09-17T16:03:43.570Z,10.01
2022-09-17T16:06:19.477Z,9.99
2022-09-17T16:08:48.661Z,9.93
2022-09-17T16:11:19.882Z,9.90
2022-09-17T16:13:47.530Z,9.85
2022-09-17T16:16:18.239Z,9.76
2022-09-17T16:18:45.138Z,9.75
2022-09-17T16:21:13.269Z,9.73
2022-09-17T16:23:40.288Z,9.65
2022-09-17T16:26:10.570Z,9.59
2022-09-17T16:28:37.343Z,9.55
2022-09-17T16:31:05.769Z,9.50
2022-09-17T16:33:32.740Z,9.40
2022-09-17T16:35:59.755Z,9.30
2022-09-17T16:38:26.587Z,9.26
2022-09-17T16:40:53.247Z,9.23
2022-09-17T16:43:19.872Z,9.20
2022-09-17T16:46:03.300Z,9.15
2022-09-17T16:48:30.004Z,9.10
2022-09-17T16:50:56.646Z,9.04
2022-09-17T16:53:23.348Z,9.01
2022-09-17T16:55:49.948Z,9.02
2022-09-17T16:58:16.630Z,8.98
2022-09-17T17:00:44.854Z,8.97
2022-09-17T17:03:13.472Z,9.01
2022-09-17T17:05:40.707Z,8.97
2022-09-17T17:08:09.145Z,8.91
2022-09-17T17:10:38.381Z,8.82
2022-09-17T17:13:05.505Z,8.77
2022-09-17T17:15:32.671Z,8.71
2022-09-17T17:17:59.342Z,8.68
2022-09-17T17:20:26.090Z,8.64
2022-09-17T17:22:52.993Z,8.63
2022-09-17T17:25:19.717Z,8.59
2022-09-17T17:27:46.428Z,8.60
2022-09-17T17:30:17.562Z,8.58
2022-09-17T17:32:49.175Z,8.58
2022-09-17T17:35:16.097Z,8.56
2022-09-17T17:37:42.749Z,8.50
2022-09-17T17:40:10.388Z,8.48
2022-09-17T17:42:38.355Z,8.39
2022-09-17T17:45:06.536Z,8.31
2022-09-17T17:47:33.488Z,8.27
2022-09-17T17:50:00.283Z,8.22
2022-09-17T17:52:27.728Z,8.21
2022-09-17T17:54:54.434Z,8.17
2022-09-17T17:57:21.141Z,8.11
2022-09-17T17:59:47.792Z,8.07
2022-09-17T18:02:14.602Z,8.08
2022-09-17T18:04:41.348Z,8.01
2022-09-17T18:07:08.041Z,7.94
2022-09-17T18:09:34.819Z,7.90
2022-09-17T18:12:01.640Z,7.83
2022-09-17T18:14:28.333Z,7.77
2022-09-17T18:16:55.093Z,7.71
2022-09-17T18:19:21.690Z,7.58
2022-09-17T18:21:48.353Z,7.72
2022-09-17T18:24:15.003Z,7.79
2022-09-17T18:26:41.641Z,7.85
2022-09-17T18:29:08.529Z,7.89
2022-09-17T18:31:37.837Z,7.85
2022-09-17T18:34:11.754Z,7.86
2022-09-17T18:36:39.730Z,7.85
2022-09-17T18:39:52.876Z,7.83
2022-09-17T18:41:54.994Z,7.81
2022-09-17T18:44:22.469Z,7.78
2022-09-17T18:46:51.141Z,7.77
2022-09-17T18:49:18.063Z,7.74
2022-09-17T18:51:44.657Z,7.71
2022-09-17T18:54:12.940Z,7.69
2022-09-17T18:56:41.577Z,7.68
2022-09-17T18:59:08.912Z,7.64
2022-09-17T19:01:36.039Z,7.63
2022-09-17T19:04:03.422Z,7.62
2022-09-17T19:06:31.914Z,7.49
2022-09-17T19:09:03.216Z,7.44
2022-09-17T19:11:30.370Z,7.45
2022-09-17T19:13:57.120Z,7.46
2022-09-17T19:16:23.874Z,7.47
2022-09-17T19:18:50.652Z,7.53
2022-09-17T19:21:21.774Z,7.50
2022-09-17T19:23:51.025Z,7.49
2022-09-17T19:26:23.183Z,7.47
2022-09-17T19:29:00.558Z,7.52
2022-09-17T19:31:27.795Z,7.48
2022-09-17T19:33:55.491Z,7.45
2022-09-17T19:36:22.112Z,7.43
2022-09-17T19:38:49.411Z,7.44
2022-09-17T19:41:18.894Z,7.45
2022-09-17T19:43:46.633Z,7.46
2022-09-17T19:46:18.679Z,7.48
2022-09-17T19:48:49.549Z,7.52
2022-09-17T19:51:17.568Z,7.62
2022-09-17T19:53:44.474Z,7.64
2022-09-17T19:56:13.363Z,7.54
2022-09-17T19:58:40.359Z,7.53
2022-09-17T20:01:07.277Z,7.49
2022-09-17T20:03:33.936Z,7.49
2022-09-17T20:06:06.744Z,7.41
2022-09-17T20:08:35.907Z,7.36
2022-09-17T20:11:07.924Z,7.41
2022-09-17T20:13:34.773Z,7.39
2022-09-17T20:16:05.331Z,7.36
2022-09-17T20:18:32.547Z,7.38
2022-09-17T20:20:59.249Z,7.40
2022-09-17T20:23:31.071Z,7.33
2022-09-17T20:25:57.827Z,7.37
2022-09-17T20:28:24.506Z,7.38
2022-09-17T20:31:00.188Z,7.42
2022-09-17T20:33:28.130Z,7.50
2022-09-17T20:36:02.475Z,7.51
2022-09-17T20:39:10.088Z,7.53
2022-09-17T20:41:18.215Z,7.48
2022-09-17T20:43:47.996Z,7.48
2022-09-17T20:46:15.737Z,7.46
2022-09-17T20:48:43.367Z,7.48
2022-09-17T20:51:16.142Z,7.50
2022-09-17T20:53:43.773Z,7.56
2022-09-17T20:56:16.277Z,7.57
2022-09-17T20:58:53.545Z,7.62
2022-09-17T21:01:32.989Z,7.59
2022-09-17T21:04:01.489Z,7.62
2022-09-17T21:06:35.812Z,7.54
2022-09-17T21:09:03.253Z,7.51
2022-09-17T21:11:31.467Z,7.42
2022-09-17T21:14:00.093Z,7.38
2022-09-17T21:16:27.774Z,7.45
2022-09-17T21:18:59.165Z,7.44
2022-09-17T21:21:26.599Z,7.42
2022-09-17T21:23:53.666Z,7.41
2022-09-17T21:26:22.412Z,7.28
2022-09-17T21:28:51.430Z,7.19
2022-09-17T21:31:32.426Z,7.11
2022-09-17T21:34:07.906Z,7.05
2022-09-17T21:36:35.851Z,6.99
2022-09-17T21:39:06.066Z,6.94
2022-09-17T21:41:33.497Z,6.94
2022-09-17T21:44:00.302Z,6.95
2022-09-17T21:46:34.168Z,6.81
2022-09-17T21:49:04.930Z,6.72
2022-09-17T21:51:39.802Z,6.73
2022-09-17T21:54:07.795Z,6.65
2022-09-17T21:56:34.901Z,6.60
2022-09-17T21:59:04.218Z,6.56
2022-09-17T22:01:35.814Z,6.51
2022-09-17T22:04:02.579Z,6.49
2022-09-17T22:06:31.674Z,6.48
2022-09-17T22:08:59.593Z,6.39
2022-09-17T22:11:35.125Z,6.40
2022-09-17T22:14:10.909Z,6.35
2022-09-17T22:16:39.937Z,6.32
2022-09-17T22:19:07.974Z,6.33
2022-09-17T22:21:37.414Z,6.22
2022-09-17T22:24:05.782Z,6.22
2022-09-17T22:26:36.030Z,6.20
2022-09-17T22:29:05.111Z,6.12
2022-09-17T22:31:32.525Z,6.13
2022-09-17T22:33:59.574Z,6.08
2022-09-17T22:36:26.978Z,6.05
2022-09-17T22:38:58.620Z,5.99
2022-09-17T22:41:26.542Z,6.03
2022-09-17T22:43:59.132Z,6.05
2022-09-17T22:46:34.341Z,5.98
2022-09-17T22:49:01.609Z,6.01
2022-09-17T22:51:30.099Z,5.98
2022-09-17T22:53:58.314Z,6.02
2022-09-17T22:56:27.157Z,6.05
2022-09-17T22:58:54.156Z,5.92
2022-09-17T23:01:23.395Z,5.91
2022-09-17T23:03:52.550Z,5.94
2022-09-17T23:06:24.959Z,5.84
2022-09-17T23:08:52.421Z,5.80
2022-09-17T23:11:21.773Z,5.80
2022-09-17T23:13:50.598Z,5.81
2022-09-17T23:16:18.254Z,5.75
2022-09-17T23:18:45.015Z,5.74
2022-09-17T23:21:14.139Z,5.71
2022-09-17T23:23:42.487Z,5.52
2022-09-17T23:26:12.417Z,5.54
2022-09-17T23:28:39.840Z,5.52
2022-09-17T23:31:15.222Z,5.52
2022-09-17T23:33:42.548Z,5.51
2022-09-17T23:36:15.004Z,5.54
2022-09-17T23:38:44.689Z,5.34
2022-09-17T23:41:15.472Z,5.26
2022-09-17T23:43:43.531Z,5.32
2022-09-17T23:46:10.498Z,5.37
2022-09-17T23:48:37.304Z,5.33
2022-09-17T23:51:05.202Z,5.34
2022-09-17T23:53:33.355Z,5.37
2022-09-17T23:56:03.372Z,5.40
2022-09-17T23:58:31.377Z,5.42
